createdAt,value
2023-01-04T00:00:11.401Z,5.26
2023-01-04T00:01:11.384Z,5.25
2023-01-04T00:02:11.498Z,5.33
2023-01-04T00:03:11.540Z,5.28
2023-01-04T00:04:11.350Z,5.25
2023-01-04T00:05:11.339Z,5.25
2023-01-04T00:06:11.348Z,5.29
2023-01-04T00:07:11.327Z,5.20
2023-01-04T00:08:11.311Z,5.17
2023-01-04T00:09:11.310Z,5.26
2023-01-04T00:10:11.348Z,5.25
2023-01-04T00:11:11.306Z,5.18
2023-01-04T00:12:11.299Z,5.15
2023-01-04T00:13:11.291Z,5.07
2023-01-04T00:14:11.270Z,5.04
2023-01-04T00:15:11.294Z,5.15
2023-01-04T00:16:11.318Z,5.12
2023-01-04T00:17:12.173Z,5.18
2023-01-04T00:18:11.262Z,5.14
2023-01-04T00:19:11.225Z,5.17
2023-01-04T00:20:11.218Z,5.18
2023-01-04T00:21:11.217Z,5.21
2023-01-04T00:22:11.211Z,5.23
2023-01-04T00:23:11.195Z,5.28
2023-01-04T00:24:11.207Z,5.28
2023-01-04T00:25:11.182Z,5.18
2023-01-04T00:27:02.762Z,5.14
2023-01-04T00:28:02.755Z,5.08
2023-01-04T00:29:02.795Z,5.12
2023-01-04T00:30:02.742Z,5.14
2023-01-04T00:31:03.911Z,5.08
2023-01-04T00:32:03.829Z,5.07
2023-01-04T00:33:03.812Z,5.00
2023-01-04T00:34:03.803Z,4.99
2023-01-04T00:35:03.787Z,4.94
2023-01-04T00:36:03.803Z,4.99
2023-01-04T00:37:03.795Z,4.94
2023-01-04T00:38:03.777Z,4.99
2023-01-04T00:39:03.792Z,4.90
2023-01-04T00:40:03.749Z,4.90
2023-01-04T00:41:03.784Z,4.92
2023-01-04T00:42:03.733Z,4.99
2023-01-04T00:43:03.742Z,4.97
2023-01-04T00:44:03.741Z,4.99
2023-01-04T00:45:03.730Z,4.96
2023-01-04T00:46:03.755Z,5.05
2023-01-04T00:47:03.714Z,5.08
2023-01-04T00:48:03.704Z,5.14
2023-01-04T00:49:03.691Z,5.12
2023-01-04T00:50:03.683Z,5.18
2023-01-04T00:51:03.705Z,5.10
2023-01-04T00:52:03.667Z,5.14
2023-01-04T00:53:03.661Z,5.17
2023-01-04T00:54:03.658Z,5.33
2023-01-04T00:55:03.652Z,5.20
2023-01-04T00:56:03.637Z,5.25
2023-01-04T00:57:03.633Z,5.21
2023-01-04T00:58:03.619Z,5.14
2023-01-04T00:59:03.641Z,5.21
2023-01-04T01:00:03.611Z,5.18
2023-01-04T01:01:03.620Z,5.29
2023-01-04T01:02:04.435Z,5.32
2023-01-04T01:03:03.809Z,5.23
2023-01-04T01:04:03.638Z,5.25
2023-01-04T01:05:03.575Z,5.15
2023-01-04T01:06:03.597Z,5.15
2023-01-04T01:07:03.554Z,5.15
2023-01-04T01:08:03.562Z,5.17
2023-01-04T01:09:03.545Z,5.17
2023-01-04T01:10:03.546Z,5.15
2023-01-04T01:11:03.530Z,5.20
2023-01-04T01:12:03.508Z,5.21
2023-01-04T01:13:03.956Z,5.23
2023-01-04T01:14:03.502Z,5.20
2023-01-04T01:15:03.496Z,5.17
2023-01-04T01:16:03.516Z,5.15
2023-01-04T01:17:03.564Z,5.08
2023-01-04T01:18:03.463Z,5.12
2023-01-04T01:19:03.465Z,5.17
2023-01-04T01:20:03.475Z,5.12
2023-01-04T01:21:03.440Z,5.11
2023-01-04T01:22:03.429Z,4.99
2023-01-04T01:23:03.464Z,5.11
2023-01-04T01:24:03.426Z,5.07
2023-01-04T01:25:04.423Z,5.11
2023-01-04T01:26:03.426Z,5.05
2023-01-04T01:27:03.399Z,5.07
2023-01-04T01:28:03.406Z,5.08
2023-01-04T01:29:03.393Z,4.96
2023-01-04T01:30:03.400Z,5.05
2023-01-04T01:31:08.394Z,4.97
2023-01-04T01:32:05.349Z,5.05
2023-01-04T01:33:03.352Z,4.94
2023-01-04T01:34:03.382Z,4.92
2023-01-04T01:35:03.344Z,4.80
2023-01-04T01:36:03.322Z,4.77
2023-01-04T01:37:03.365Z,4.74
2023-01-04T01:38:03.324Z,4.67
2023-01-04T01:39:03.297Z,4.89
2023-01-04T01:40:03.291Z,4.74
2023-01-04T01:41:03.312Z,4.77
2023-01-04T01:42:03.421Z,4.66
2023-01-04T01:43:03.270Z,4.67
2023-01-04T01:44:03.271Z,4.63
2023-01-04T01:45:03.282Z,4.67
2023-01-04T01:46:04.263Z,4.60
2023-01-04T01:47:03.394Z,4.60
2023-01-04T01:48:03.255Z,4.67
2023-01-04T01:49:03.252Z,4.59
2023-01-04T01:50:03.252Z,4.55
2023-01-04T01:51:03.216Z,4.58
2023-01-04T01:52:03.233Z,4.59
2023-01-04T01:53:03.185Z,4.52
2023-01-04T01:54:03.202Z,4.59
2023-01-04T01:55:03.206Z,4.56
2023-01-04T01:56:03.160Z,4.53
2023-01-04T01:57:03.179Z,4.58
2023-01-04T01:58:03.180Z,4.59
2023-01-04T01:59:03.157Z,4.53
2023-01-04T02:00:03.907Z,4.48
2023-01-04T02:01:03.138Z,4.58
2023-01-04T02:02:03.284Z,4.60
2023-01-04T02:03:03.221Z,4.56
2023-01-04T02:04:03.194Z,4.50
2023-01-04T02:05:03.127Z,4.49
2023-01-04T02:06:03.113Z,4.48
2023-01-04T02:07:03.080Z,4.52
2023-01-04T02:08:03.087Z,4.53
2023-01-04T02:09:03.078Z,4.45
2023-01-04T02:10:03.846Z,4.42
2023-01-04T02:11:03.083Z,4.45
2023-01-04T02:12:03.067Z,4.45
2023-01-04T02:13:03.047Z,4.53
2023-01-04T02:14:03.073Z,4.53
2023-01-04T02:15:03.044Z,4.40
2023-01-04T02:16:03.099Z,4.42
2023-01-04T02:17:03.018Z,4.40
2023-01-04T02:18:03.019Z,4.31
2023-01-04T02:19:03.830Z,4.30
2023-01-04T02:20:03.002Z,4.31
2023-01-04T02:21:02.979Z,4.28
2023-01-04T02:22:02.981Z,4.28
2023-01-04T02:23:02.974Z,4.23
2023-01-04T02:24:02.962Z,4.30
2023-01-04T02:25:02.958Z,4.35
2023-01-04T02:26:02.951Z,4.35
2023-01-04T02:27:02.972Z,4.30
2023-01-04T02:28:02.925Z,4.30
2023-01-04T02:29:02.930Z,4.23
2023-01-04T02:30:02.907Z,4.20
2023-01-04T02:31:02.973Z,4.22
2023-01-04T02:32:04.422Z,4.22
2023-01-04T02:33:02.889Z,4.16
2023-01-04T02:34:02.885Z,4.17
2023-01-04T02:35:02.865Z,4.13
2023-01-04T02:36:02.889Z,4.17
2023-01-04T02:37:02.876Z,4.06
2023-01-04T02:38:02.851Z,4.22
2023-01-04T02:39:02.850Z,4.22
2023-01-04T02:40:02.835Z,4.20
2023-01-04T02:41:02.825Z,4.20
2023-01-04T02:42:03.824Z,4.24
2023-01-04T02:43:02.820Z,4.19
2023-01-04T02:44:02.807Z,4.12
2023-01-04T02:45:02.798Z,4.17
2023-01-04T21:26:11.012Z,11.60
2023-01-04T21:27:10.974Z,11.63
2023-01-04T21:28:10.989Z,11.59
2023-01-04T21:29:10.972Z,11.52
2023-01-04T21:30:10.950Z,11.54
2023-01-04T21:31:10.997Z,11.65
2023-01-04T21:32:10.930Z,11.63
2023-01-04T21:33:12.047Z,11.60
2023-01-04T21:34:14.425Z,11.52
2023-01-04T21:35:14.032Z,11.48
2023-01-04T21:36:12.011Z,11.52
2023-01-04T21:37:45.116Z,11.50
2023-01-04T21:38:11.993Z,11.65
2023-01-04T21:39:11.973Z,11.40
2023-01-04T21:41:18.867Z,11.44
2023-01-04T21:42:18.833Z,11.35
2023-01-04T21:43:18.825Z,11.30
2023-01-04T21:44:18.816Z,11.37
2023-01-04T21:45:18.809Z,11.36
2023-01-04T21:46:19.968Z,11.35
2023-01-04T21:47:19.887Z,11.25
2023-01-04T21:48:19.873Z,11.29
2023-01-04T21:49:19.867Z,11.17
2023-01-04T21:50:19.920Z,11.27
2023-01-04T21:51:19.850Z,11.19
2023-01-04T21:52:19.847Z,11.18
2023-01-04T21:53:20.713Z,11.12
2023-01-04T21:54:19.835Z,11.14
2023-01-04T21:55:20.791Z,11.05
2023-01-04T21:56:19.819Z,11.18
2023-01-04T21:57:19.854Z,11.02
2023-01-04T21:58:19.778Z,11.12
2023-01-04T21:59:20.773Z,11.14
2023-01-04T22:00:20.779Z,11.12
2023-01-04T22:01:19.839Z,11.04
2023-01-04T22:02:20.413Z,11.14
2023-01-04T22:03:20.289Z,11.11
2023-01-04T22:04:22.305Z,11.18
2023-01-04T22:05:19.731Z,11.19
2023-01-04T22:06:19.716Z,11.15
2023-01-04T22:07:19.746Z,11.15
2023-01-04T22:08:19.707Z,11.12
2023-01-04T22:09:19.694Z,11.12
2023-01-04T22:10:19.695Z,11.19
2023-01-04T22:11:19.675Z,11.14
2023-01-04T22:12:19.681Z,11.17
2023-01-04T22:13:21.810Z,11.15
2023-01-04T22:14:19.659Z,11.15
2023-01-04T22:15:19.643Z,11.25
2023-01-04T22:16:19.706Z,11.22
2023-01-04T22:17:20.303Z,11.25
2023-01-04T22:18:19.641Z,11.18
2023-01-04T22:19:19.617Z,11.19
2023-01-04T22:20:19.606Z,11.17
2023-01-04T22:21:19.606Z,11.17
2023-01-04T22:22:19.592Z,11.15
2023-01-04T22:23:19.593Z,11.15
2023-01-04T22:24:19.593Z,11.19
2023-01-04T22:25:20.283Z,11.18
2023-01-04T22:26:20.560Z,11.14
2023-01-04T22:27:19.546Z,11.22
2023-01-04T22:28:19.549Z,11.19
2023-01-04T22:29:19.541Z,11.23
2023-01-04T22:30:19.527Z,11.14
2023-01-04T22:32:27.189Z,11.22
2023-01-04T22:33:27.195Z,11.23
2023-01-04T22:34:28.105Z,11.25
2023-01-04T22:35:28.314Z,11.26
2023-01-04T22:36:31.058Z,11.22
2023-01-04T22:37:28.246Z,11.25
2023-01-04T22:38:28.264Z,11.30
2023-01-04T22:39:31.197Z,11.17
2023-01-04T22:40:32.161Z,11.15
2023-01-04T22:41:31.071Z,11.22
2023-01-04T22:42:28.209Z,11.19
2023-01-04T22:43:28.202Z,11.22
2023-01-04T22:44:28.217Z,11.19
2023-01-04T22:45:28.212Z,11.15
2023-01-04T22:46:28.338Z,11.19
2023-01-04T22:47:28.178Z,11.25
2023-01-04T22:48:28.167Z,11.17
2023-01-04T22:49:28.170Z,11.15
2023-01-04T22:50:28.142Z,11.25
2023-01-04T22:51:28.146Z,11.17
2023-01-04T22:52:28.132Z,11.22
2023-01-04T22:53:28.133Z,11.25
2023-01-04T22:54:28.127Z,11.25
2023-01-04T22:55:45.744Z,11.22
2023-01-04T22:56:30.142Z,11.26
2023-01-04T22:57:28.687Z,11.26
2023-01-04T22:58:28.083Z,11.25
2023-01-04T22:59:28.120Z,11.26
2023-01-04T23:00:28.069Z,11.22
2023-01-04T23:01:28.216Z,11.18
2023-01-04T23:02:28.114Z,11.25
2023-01-04T23:03:28.204Z,11.29
2023-01-04T23:04:28.109Z,11.25
2023-01-04T23:05:28.024Z,11.18
2023-01-04T23:06:28.024Z,11.22
2023-01-04T23:07:28.019Z,11.17
2023-01-04T23:08:29.820Z,11.22
2023-01-04T23:09:29.606Z,11.18
2023-01-04T23:10:28.000Z,11.25
2023-01-04T23:11:27.981Z,11.19
2023-01-04T23:12:27.972Z,11.26
2023-01-04T23:13:27.994Z,11.22
2023-01-04T23:14:27.949Z,11.17
2023-01-04T23:15:27.961Z,11.18
2023-01-04T23:16:32.787Z,11.19
2023-01-04T23:17:29.582Z,11.30
2023-01-04T23:18:27.913Z,11.23
2023-01-04T23:19:27.929Z,11.18
2023-01-04T23:20:29.573Z,11.26
2023-01-04T23:21:27.903Z,11.26
2023-01-04T23:22:27.882Z,11.27
2023-01-04T23:23:27.896Z,11.29
2023-01-04T23:24:27.867Z,11.30
2023-01-04T23:25:32.753Z,11.27
2023-01-04T23:26:27.865Z,11.27
2023-01-04T23:27:27.845Z,11.33
2023-01-04T23:28:27.826Z,11.22
2023-01-04T23:29:29.553Z,11.32
2023-01-04T23:30:28.822Z,11.36
2023-01-04T23:31:28.735Z,11.29
2023-01-04T23:32:28.711Z,11.26
2023-01-04T23:33:34.000Z,11.32
2023-01-04T23:34:29.794Z,11.30
2023-01-04T23:35:28.575Z,11.37
2023-01-04T23:36:27.788Z,11.32
2023-01-04T23:37:27.792Z,11.27
2023-01-04T23:38:27.755Z,11.23
2023-01-04T23:39:27.737Z,11.26
2023-01-04T23:40:27.729Z,11.32
2023-01-04T23:41:27.728Z,11.26
2023-01-04T23:42:27.720Z,11.19
2023-01-04T23:43:27.709Z,11.12
2023-01-04T23:44:27.696Z,11.22
2023-01-04T23:45:27.710Z,11.18
2023-01-04T23:46:28.763Z,11.14
2023-01-04T23:47:27.691Z,11.08
2023-01-04T23:48:27.680Z,11.12
2023-01-04T23:49:27.687Z,11.08
2023-01-04T23:50:27.779Z,10.99
2023-01-04T23:51:27.639Z,11.12
2023-01-04T23:52:27.678Z,11.05
2023-01-04T23:53:28.652Z,10.99
2023-01-04T23:54:28.612Z,11.05
2023-01-04T23:55:27.612Z,10.96
2023-01-04T23:56:27.614Z,11.05
2023-01-04T23:57:27.595Z,11.04
2023-01-04T23:58:28.151Z,11.05
2023-01-04T23:59:27.625Z,11.12
